createdAt,value
2019-03-25T00:02:16.426Z,2.22
2019-03-25T00:04:46.989Z,2.16
2019-03-25T00:07:17.321Z,2.13
2019-03-25T00:09:47.542Z,2.13
2019-03-25T00:12:17.797Z,2.14
2019-03-25T00:14:48.005Z,2.15
2019-03-25T00:17:18.289Z,2.20
2019-03-25T00:19:48.516Z,2.24
2019-03-25T00:22:18.802Z,2.32
2019-03-25T00:24:49.368Z,2.37
2019-03-25T00:27:19.716Z,2.39
2019-03-25T00:29:49.934Z,2.41
2019-03-25T00:32:20.163Z,2.44
2019-03-25T00:34:50.427Z,2.47
2019-03-25T00:37:20.662Z,2.49
2019-03-25T00:39:50.928Z,2.49
2019-03-25T00:42:21.142Z,2.50
2019-03-25T00:44:51.380Z,2.53
2019-03-25T00:47:21.795Z,2.56
2019-03-25T00:49:52.357Z,2.64
2019-03-25T00:52:23.002Z,2.73
2019-03-25T00:54:53.660Z,2.81
2019-03-25T00:57:23.948Z,2.86
2019-03-25T00:59:54.258Z,2.89
2019-03-25T01:02:24.840Z,2.87
2019-03-25T01:04:56.428Z,2.81
2019-03-25T01:07:27.085Z,2.82
2019-03-25T01:09:57.398Z,2.82
2019-03-25T01:12:27.970Z,2.73
2019-03-25T01:14:58.280Z,2.69
2019-03-25T01:17:28.492Z,2.64
2019-03-25T01:19:58.729Z,2.62
2019-03-25T01:22:28.978Z,2.60
2019-03-25T01:25:02.269Z,2.57
2019-03-25T01:27:31.468Z,2.58
2019-03-25T01:30:01.815Z,2.56
2019-03-25T01:32:32.368Z,2.56
2019-03-25T01:35:02.689Z,2.56
2019-03-25T01:37:32.901Z,2.58
2019-03-25T01:40:03.586Z,2.58
2019-03-25T01:42:34.172Z,2.60
2019-03-25T01:45:07.274Z,2.62
2019-03-25T01:47:37.580Z,2.64
2019-03-25T01:50:08.543Z,2.69
2019-03-25T01:52:39.125Z,2.67
2019-03-25T01:55:13.709Z,2.70
2019-03-25T01:57:42.722Z,2.71
2019-03-25T02:00:13.614Z,2.69
2019-03-25T02:02:44.210Z,2.70
2019-03-25T02:05:14.907Z,2.69
2019-03-25T02:07:45.627Z,2.70
2019-03-25T02:10:17.791Z,2.71
2019-03-25T02:12:48.011Z,2.78
2019-03-25T02:15:19.323Z,2.86
2019-03-25T02:17:49.891Z,2.90
2019-03-25T02:20:26.294Z,2.89
2019-03-25T02:22:52.763Z,2.88
2019-03-25T02:25:25.697Z,2.85
2019-03-25T02:27:55.845Z,2.81
2019-03-25T02:30:26.446Z,2.73
2019-03-25T02:32:57.115Z,2.78
2019-03-25T02:35:27.754Z,2.78
2019-03-25T02:37:58.050Z,2.71
2019-03-25T02:40:28.280Z,2.63
2019-03-25T02:42:58.520Z,2.54
2019-03-25T02:45:28.736Z,2.50
2019-03-25T02:47:58.979Z,2.49
2019-03-25T02:50:29.218Z,2.43
2019-03-25T02:52:59.433Z,2.41
2019-03-25T02:55:41.510Z,2.42
2019-03-25T02:58:01.974Z,2.40
2019-03-25T03:00:36.214Z,2.39
2019-03-25T03:03:07.683Z,2.38
2019-03-25T03:05:38.416Z,2.39
2019-03-25T03:08:09.053Z,2.40
2019-03-25T03:10:41.388Z,2.39
2019-03-25T03:13:12.072Z,2.38
2019-03-25T03:15:42.392Z,2.36
2019-03-25T03:18:12.631Z,2.33
2019-03-25T03:20:42.907Z,2.34
2019-03-25T03:23:13.363Z,2.39
2019-03-25T03:25:56.479Z,2.40
2019-03-25T03:28:16.311Z,2.34
2019-03-25T03:30:47.011Z,2.30
2019-03-25T03:33:17.344Z,2.31
2019-03-25T03:35:47.554Z,2.28
2019-03-25T03:38:18.113Z,2.28
2019-03-25T03:40:48.821Z,2.30
2019-03-25T03:43:19.116Z,2.30
2019-03-25T03:45:49.353Z,2.29
2019-03-25T03:48:19.582Z,2.27
2019-03-25T03:50:50.854Z,2.25
2019-03-25T03:53:21.168Z,2.23
2019-03-25T03:55:53.245Z,2.22
2019-03-25T03:58:26.409Z,2.19
2019-03-25T04:00:56.729Z,2.19
2019-03-25T04:03:28.571Z,2.18
2019-03-25T04:05:58.907Z,2.16
2019-03-25T04:08:29.147Z,2.14
2019-03-25T04:10:59.778Z,2.09
2019-03-25T04:13:30.098Z,2.10
2019-03-25T04:16:01.713Z,2.10
2019-03-25T04:18:32.577Z,2.08
2019-03-25T04:21:03.223Z,2.08
2019-03-25T04:23:33.728Z,2.08
2019-03-25T04:26:04.052Z,2.08
2019-03-25T04:28:35.209Z,2.09
2019-03-25T04:31:05.819Z,2.11
2019-03-25T04:33:36.091Z,2.12
2019-03-25T04:36:06.392Z,2.13
2019-03-25T04:38:36.616Z,2.18
2019-03-25T04:41:07.217Z,2.26
2019-03-25T04:43:37.854Z,2.32
2019-03-25T04:46:08.521Z,2.39
2019-03-25T04:48:39.198Z,2.47
2019-03-25T04:51:09.547Z,2.46
2019-03-25T04:53:59.096Z,2.44
2019-03-25T04:56:39.068Z,2.43
2019-03-25T04:59:01.253Z,2.42
2019-03-25T05:01:31.510Z,2.43
2019-03-25T05:04:01.776Z,2.45
2019-03-25T05:06:32.373Z,2.45
2019-03-25T05:09:02.878Z,2.43
2019-03-25T05:11:33.098Z,2.52
2019-03-25T05:14:03.342Z,2.65
2019-03-25T05:16:33.942Z,2.79
2019-03-25T05:19:04.598Z,2.90
2019-03-25T05:21:34.920Z,2.97
2019-03-25T05:24:05.180Z,3.06
2019-03-25T05:26:35.396Z,3.19
2019-03-25T05:29:05.996Z,3.30
2019-03-25T05:31:36.637Z,3.40
2019-03-25T05:34:07.291Z,3.52
2019-03-25T05:36:37.920Z,3.58
2019-03-25T05:39:10.137Z,3.58
2019-03-25T05:41:40.784Z,3.59
2019-03-25T05:44:11.468Z,3.63
2019-03-25T05:46:41.819Z,3.70
2019-03-25T05:49:12.045Z,3.82
2019-03-25T05:51:42.668Z,3.98
2019-03-25T05:54:12.970Z,4.13
2019-03-25T05:56:43.237Z,4.32
2019-03-25T05:59:13.825Z,4.52
2019-03-25T06:01:44.435Z,4.74
2019-03-25T06:04:15.072Z,4.94
2019-03-25T06:06:45.364Z,5.10
2019-03-25T06:09:15.960Z,5.29
2019-03-25T06:11:46.244Z,5.55
2019-03-25T06:14:16.799Z,5.84
2019-03-25T06:16:47.442Z,6.18
2019-03-25T06:19:19.265Z,6.50
2019-03-25T06:21:50.972Z,6.83
2019-03-25T06:24:21.624Z,7.25
2019-03-25T06:26:51.918Z,7.78
2019-03-25T06:29:22.526Z,8.47
2019-03-25T06:31:54.848Z,9.19
2019-03-25T06:34:25.191Z,9.86
2019-03-25T06:36:55.753Z,10.14
2019-03-25T06:39:26.883Z,10.25
2019-03-25T06:41:57.533Z,10.58
2019-03-25T06:44:29.408Z,10.77
2019-03-25T06:46:59.693Z,10.88
2019-03-25T06:49:30.260Z,10.97
2019-03-25T06:52:00.613Z,11.15
2019-03-25T06:54:31.036Z,11.75
2019-03-25T06:57:01.678Z,12.41
2019-03-25T06:59:31.989Z,13.24
2019-03-25T07:02:02.613Z,14.13
2019-03-25T07:04:33.237Z,14.69
2019-03-25T07:07:03.554Z,14.83
2019-03-25T07:09:37.137Z,14.89
2019-03-25T07:12:07.438Z,15.04
2019-03-25T07:14:37.658Z,15.08
2019-03-25T07:17:08.267Z,15.01
2019-03-25T07:19:41.358Z,15.01
2019-03-25T07:22:17.307Z,15.30
2019-03-25T07:24:46.431Z,15.92
2019-03-25T07:27:17.014Z,16.72
2019-03-25T07:29:47.326Z,17.56
2019-03-25T07:32:17.555Z,17.75
2019-03-25T07:34:48.194Z,17.93
2019-03-25T07:37:18.491Z,18.23
2019-03-25T07:39:48.701Z,18.59
2019-03-25T07:42:18.949Z,18.79
2019-03-25T07:44:49.581Z,18.89
2019-03-25T07:47:20.209Z,19.34
2019-03-25T07:49:50.855Z,19.78
2019-03-25T07:52:21.199Z,19.97
2019-03-25T07:54:51.421Z,20.15
2019-03-25T07:57:21.658Z,20.62
2019-03-25T07:59:51.900Z,20.77
2019-03-25T08:02:22.200Z,20.82
2019-03-25T08:04:52.806Z,20.67
2019-03-25T08:07:23.475Z,20.85
2019-03-25T08:09:54.158Z,21.00
2019-03-25T08:12:24.793Z,20.90
2019-03-25T08:14:56.994Z,20.89
2019-03-25T08:17:27.291Z,20.53
2019-03-25T08:19:57.529Z,20.20
2019-03-25T08:22:27.839Z,19.29
2019-03-25T08:24:58.424Z,18.64
2019-03-25T08:27:29.060Z,18.07
2019-03-25T08:29:59.836Z,17.51
2019-03-25T08:32:31.629Z,16.60
2019-03-25T08:35:02.388Z,15.85
2019-03-25T08:37:32.702Z,15.32
2019-03-25T08:40:03.392Z,14.89
2019-03-25T08:42:35.818Z,14.84
2019-03-25T08:45:07.924Z,15.12
2019-03-25T08:47:38.254Z,15.52
2019-03-25T08:50:10.499Z,15.85
2019-03-25T08:52:40.792Z,16.74
2019-03-25T08:55:11.506Z,18.26
2019-03-25T08:57:41.923Z,19.54
2019-03-25T09:00:12.937Z,20.38
2019-03-25T09:02:43.164Z,21.07
2019-03-25T09:05:13.814Z,22.17
2019-03-25T09:07:44.046Z,22.37
2019-03-25T09:10:15.090Z,22.99
2019-03-25T09:12:45.486Z,23.43
2019-03-25T09:15:16.002Z,23.88
2019-03-25T09:17:46.598Z,23.39
2019-03-25T09:20:17.451Z,22.43
2019-03-25T09:22:51.055Z,21.29
2019-03-25T09:25:22.005Z,20.29
2019-03-25T09:27:52.362Z,19.26
2019-03-25T09:30:53.096Z,18.45
2019-03-25T09:33:23.794Z,17.67
2019-03-25T09:35:54.436Z,16.84
2019-03-25T09:38:24.758Z,16.40
2019-03-25T09:40:55.396Z,16.01
2019-03-25T09:43:25.696Z,15.87
2019-03-25T09:45:57.930Z,16.04
2019-03-25T09:48:28.591Z,17.15
2019-03-25T09:50:58.937Z,17.61
2019-03-25T09:53:29.157Z,18.27
2019-03-25T09:55:59.491Z,17.90
2019-03-25T09:58:36.624Z,17.45
2019-03-25T10:01:03.618Z,16.72
2019-03-25T10:03:33.846Z,16.80
2019-03-25T10:06:04.158Z,17.15
2019-03-25T10:08:34.748Z,17.53
2019-03-25T10:11:05.729Z,17.62
2019-03-25T10:13:36.401Z,17.63
2019-03-25T10:16:06.773Z,18.02
2019-03-25T10:18:36.974Z,18.26
2019-03-25T10:21:07.349Z,17.94
2019-03-25T10:23:38.753Z,17.93
2019-03-25T10:26:09.392Z,17.39
2019-03-25T10:28:48.678Z,16.56
2019-03-25T10:31:11.622Z,16.01
2019-03-25T10:33:41.868Z,15.59
2019-03-25T10:36:12.062Z,15.27
2019-03-25T10:38:42.297Z,15.29
2019-03-25T10:41:12.505Z,15.56
2019-03-25T10:43:42.723Z,15.57
2019-03-25T10:46:14.588Z,15.19
2019-03-25T10:48:44.856Z,14.69
2019-03-25T10:51:16.490Z,14.59
2019-03-25T10:53:47.741Z,14.50
2019-03-25T10:56:17.955Z,14.61
2019-03-25T10:58:50.707Z,14.54
2019-03-25T11:01:21.479Z,14.49
2019-03-25T11:03:53.805Z,14.29
2019-03-25T11:06:24.457Z,14.02
2019-03-25T11:08:55.486Z,13.85
2019-03-25T11:11:26.271Z,13.89
2019-03-25T11:13:56.598Z,13.77
2019-03-25T11:16:26.804Z,13.67
2019-03-25T11:18:57.038Z,13.80
2019-03-25T11:21:28.661Z,14.02
2019-03-25T11:23:58.973Z,13.99
2019-03-25T11:26:29.197Z,13.79
2019-03-25T11:29:04.611Z,13.68
2019-03-25T11:31:32.504Z,13.47
2019-03-25T11:34:02.750Z,13.16
2019-03-25T11:36:33.037Z,12.97
2019-03-25T11:39:05.317Z,12.75
2019-03-25T11:41:37.374Z,12.50
2019-03-25T11:44:07.575Z,12.35
2019-03-25T11:46:38.066Z,12.42
2019-03-25T11:49:08.309Z,12.50
2019-03-25T11:51:38.513Z,12.70
2019-03-25T11:54:08.842Z,12.74
2019-03-25T11:56:39.106Z,12.53
2019-03-25T11:59:18.345Z,12.18
2019-03-25T12:01:41.272Z,11.95
2019-03-25T12:04:11.846Z,11.81
2019-03-25T12:06:42.518Z,11.83
2019-03-25T12:09:13.188Z,11.77
2019-03-25T12:11:45.018Z,11.93
2019-03-25T12:14:15.575Z,12.11
2019-03-25T12:16:45.869Z,12.48
2019-03-25T12:19:16.077Z,12.78
2019-03-25T12:21:46.317Z,12.85
2019-03-25T12:24:16.521Z,12.98
2019-03-25T12:26:46.762Z,13.15
2019-03-25T12:29:16.974Z,13.23
2019-03-25T12:31:47.182Z,13.15
2019-03-25T12:34:17.526Z,13.04
2019-03-25T12:36:47.753Z,12.91
2019-03-25T12:39:18.398Z,12.82
2019-03-25T12:41:49.071Z,12.70
2019-03-25T12:44:19.794Z,12.68
2019-03-25T12:46:50.069Z,12.98
2019-03-25T12:49:20.402Z,13.31
2019-03-25T12:51:50.695Z,13.62
2019-03-25T12:54:22.744Z,13.85
2019-03-25T12:56:55.140Z,13.80
2019-03-25T12:59:25.731Z,13.57
2019-03-25T13:01:56.007Z,13.13
2019-03-25T13:04:27.572Z,12.75
2019-03-25T13:06:58.100Z,12.43
2019-03-25T13:09:28.346Z,12.12
2019-03-25T13:11:58.965Z,11.94
2019-03-25T13:14:30.803Z,11.58
2019-03-25T13:17:01.406Z,11.38
2019-03-25T13:19:32.087Z,11.20
2019-03-25T13:22:02.697Z,11.36
2019-03-25T13:24:33.758Z,11.46
2019-03-25T13:27:04.458Z,11.28
2019-03-25T13:29:35.304Z,11.22
2019-03-25T13:32:05.949Z,11.25
2019-03-25T13:34:38.010Z,11.35
2019-03-25T13:37:08.274Z,11.35
2019-03-25T13:39:38.491Z,11.26
2019-03-25T13:42:08.720Z,11.15
2019-03-25T13:44:39.289Z,10.93
2019-03-25T13:47:09.670Z,10.71
2019-03-25T13:49:39.984Z,10.57
2019-03-25T13:52:10.639Z,10.69
2019-03-25T13:54:41.459Z,10.89
2019-03-25T13:57:11.693Z,11.09
2019-03-25T13:59:41.918Z,11.21
2019-03-25T14:02:12.159Z,11.10
2019-03-25T14:04:42.854Z,10.91
2019-03-25T14:07:13.523Z,10.96
2019-03-25T14:09:43.811Z,10.97
2019-03-25T14:12:14.396Z,10.98
2019-03-25T14:14:46.025Z,10.99
2019-03-25T14:17:16.673Z,10.95
2019-03-25T14:19:46.980Z,11.02
2019-03-25T14:22:17.203Z,10.91
2019-03-25T14:24:47.437Z,10.79
2019-03-25T14:27:17.667Z,10.88
2019-03-25T14:29:47.906Z,10.95
2019-03-25T14:32:18.121Z,11.12
2019-03-25T14:34:48.370Z,11.02
2019-03-25T14:37:19.339Z,11.09
2019-03-25T14:39:49.975Z,11.17
2019-03-25T14:42:21.463Z,11.06
2019-03-25T14:44:51.860Z,10.93
2019-03-25T14:47:22.168Z,10.80
2019-03-25T14:49:54.283Z,10.69
2019-03-25T14:52:24.562Z,10.60
2019-03-25T14:54:54.779Z,10.48
2019-03-25T14:57:25.020Z,10.23
2019-03-25T14:59:55.297Z,10.04
2019-03-25T15:02:25.680Z,9.90
2019-03-25T15:04:57.494Z,9.62
2019-03-25T15:07:29.827Z,9.39
2019-03-25T15:10:01.742Z,9.11
2019-03-25T15:12:33.493Z,8.93
2019-03-25T15:15:08.094Z,8.66
2019-03-25T15:17:39.460Z,8.38
2019-03-25T15:20:10.497Z,8.21
2019-03-25T15:22:40.876Z,8.05
2019-03-25T15:25:14.140Z,7.90
2019-03-25T15:27:44.872Z,7.83
2019-03-25T15:30:16.516Z,7.65
2019-03-25T15:32:46.853Z,7.57
2019-03-25T15:35:17.072Z,7.47
2019-03-25T15:37:47.717Z,7.30
2019-03-25T15:40:18.710Z,7.08
2019-03-25T15:42:49.008Z,6.89
2019-03-25T15:45:19.583Z,6.80
2019-03-25T15:47:50.158Z,6.58
2019-03-25T15:50:21.244Z,6.44
2019-03-25T15:52:51.801Z,6.16
2019-03-25T15:55:22.077Z,5.96
2019-03-25T15:57:54.178Z,5.85
2019-03-25T16:00:24.579Z,5.86
2019-03-25T16:02:54.919Z,5.85
2019-03-25T16:05:25.539Z,5.89
2019-03-25T16:07:55.900Z,5.95
2019-03-25T16:10:28.475Z,5.96
2019-03-25T16:12:59.634Z,6.04
2019-03-25T16:15:42.522Z,6.01
2019-03-25T16:18:33.635Z,5.91
2019-03-25T16:21:04.681Z,5.84
2019-03-25T16:23:36.117Z,5.69
2019-03-25T16:26:07.253Z,5.64
2019-03-25T16:28:39.446Z,5.62
2019-03-25T16:31:09.680Z,5.60
2019-03-25T16:33:40.792Z,5.61
2019-03-25T16:36:13.065Z,5.54
2019-03-25T16:38:46.251Z,5.61
2019-03-25T16:41:16.813Z,5.61
2019-03-25T16:43:47.140Z,5.72
2019-03-25T16:46:17.351Z,5.67
2019-03-25T16:48:49.135Z,5.61
2019-03-25T16:51:19.768Z,5.62
2019-03-25T16:53:52.187Z,5.57
2019-03-25T16:56:22.811Z,5.52
2019-03-25T16:58:53.100Z,5.49
2019-03-25T17:01:23.402Z,5.45
2019-03-25T17:03:54.112Z,5.37
2019-03-25T17:06:24.723Z,5.31
2019-03-25T17:08:55.007Z,5.30
2019-03-25T17:11:25.618Z,5.20
2019-03-25T17:13:56.276Z,5.08
2019-03-25T17:16:26.615Z,4.94
2019-03-25T17:18:57.583Z,4.81
2019-03-25T17:21:27.858Z,4.71
2019-03-25T17:23:58.411Z,4.63
2019-03-25T17:26:28.740Z,4.52
2019-03-25T17:28:59.031Z,4.45
2019-03-25T17:31:29.273Z,4.44
2019-03-25T17:33:59.845Z,4.37
2019-03-25T17:36:30.531Z,4.29
2019-03-25T17:39:00.884Z,4.23
2019-03-25T17:41:32.775Z,4.20
2019-03-25T17:44:03.758Z,4.15
2019-03-25T17:46:34.392Z,4.10
2019-03-25T17:49:04.980Z,4.05
2019-03-25T17:51:35.268Z,4.00
2019-03-25T17:54:05.584Z,4.03
2019-03-25T17:56:36.283Z,4.04
2019-03-25T17:59:06.972Z,4.15
2019-03-25T18:01:37.920Z,4.22
2019-03-25T18:04:08.212Z,4.32
2019-03-25T18:06:40.329Z,4.37
2019-03-25T18:09:11.133Z,4.50
2019-03-25T18:11:41.517Z,4.52
2019-03-25T18:14:11.741Z,4.51
2019-03-25T18:16:42.038Z,4.51
2019-03-25T18:19:12.262Z,4.45
2019-03-25T18:21:42.526Z,4.32
2019-03-25T18:24:12.719Z,4.25
2019-03-25T18:26:42.959Z,4.17
2019-03-25T18:29:13.256Z,4.05
2019-03-25T18:31:44.050Z,3.96
2019-03-25T18:34:14.732Z,3.87
2019-03-25T18:36:45.374Z,3.80
2019-03-25T18:39:15.699Z,3.66
2019-03-25T18:41:45.912Z,3.63
2019-03-25T18:44:16.150Z,3.50
2019-03-25T18:46:46.370Z,3.36
2019-03-25T18:49:16.694Z,3.24
2019-03-25T18:51:46.923Z,3.14
2019-03-25T18:54:17.171Z,3.04
2019-03-25T18:56:48.995Z,2.91
2019-03-25T18:59:20.191Z,2.78
2019-03-25T19:01:54.689Z,2.73
2019-03-25T19:04:24.034Z,2.58
2019-03-25T19:06:54.238Z,2.49
2019-03-25T19:09:24.504Z,2.37
2019-03-25T19:11:56.405Z,2.26
2019-03-25T19:14:27.091Z,2.21
2019-03-25T19:16:57.810Z,2.13
2019-03-25T19:19:29.620Z,2.07
2019-03-25T19:21:59.909Z,1.96
2019-03-25T19:24:30.533Z,1.92
2019-03-25T19:27:01.256Z,1.87
2019-03-25T19:29:33.026Z,1.82
2019-03-25T19:32:06.790Z,1.76
2019-03-25T19:34:35.975Z,1.74
2019-03-25T19:37:07.341Z,1.70
2019-03-25T19:39:39.782Z,1.72
2019-03-25T19:42:11.906Z,1.70
2019-03-25T19:44:42.668Z,1.66
2019-03-25T19:47:12.966Z,1.63
2019-03-25T19:49:43.220Z,1.54
2019-03-25T19:52:17.114Z,1.49
2019-03-25T19:54:49.370Z,1.48
2019-03-25T19:57:20.735Z,1.41
2019-03-25T19:59:51.178Z,1.38
2019-03-25T20:02:21.797Z,1.38
2019-03-25T20:04:52.594Z,1.33
2019-03-25T20:07:23.191Z,1.32
2019-03-25T20:09:55.286Z,1.31
2019-03-25T20:12:25.570Z,1.26
2019-03-25T20:14:55.829Z,1.21
2019-03-25T20:17:28.754Z,1.20
2019-03-25T20:19:59.080Z,1.17
2019-03-25T20:22:29.652Z,1.13
2019-03-25T20:25:00.737Z,1.13
2019-03-25T20:27:32.418Z,1.12
2019-03-25T20:30:02.857Z,1.09
2019-03-25T20:32:34.480Z,1.13
2019-03-25T20:35:06.416Z,1.09
2019-03-25T20:37:38.513Z,1.00
2019-03-25T20:40:09.775Z,0.97
2019-03-25T20:42:41.997Z,0.94
2019-03-25T20:45:12.840Z,0.92
2019-03-25T20:47:43.210Z,0.87
2019-03-25T20:50:14.503Z,0.82
2019-03-25T20:52:44.792Z,0.82
2019-03-25T20:55:15.011Z,0.79
2019-03-25T20:57:45.261Z,0.79
2019-03-25T21:00:16.340Z,0.80
2019-03-25T21:02:47.246Z,0.80
2019-03-25T21:05:17.648Z,0.81
2019-03-25T21:07:47.973Z,0.79
2019-03-25T21:10:18.204Z,0.78
2019-03-25T21:12:48.404Z,0.81
2019-03-25T21:15:18.745Z,0.75
2019-03-25T21:17:50.207Z,0.75
2019-03-25T21:20:21.853Z,0.73
2019-03-25T21:22:52.191Z,0.68
2019-03-25T21:25:22.623Z,0.69
2019-03-25T21:27:52.867Z,0.66
2019-03-25T21:30:28.305Z,0.60
2019-03-25T21:32:58.840Z,0.60
2019-03-25T21:35:29.636Z,0.52
2019-03-25T21:38:00.474Z,0.41
2019-03-25T21:40:30.885Z,0.32
2019-03-25T21:43:01.207Z,0.36
2019-03-25T21:45:31.562Z,0.32
2019-03-25T21:48:01.889Z,0.28
2019-03-25T21:50:32.355Z,0.21
2019-03-25T21:53:03.075Z,0.22
2019-03-25T21:55:33.498Z,0.22
2019-03-25T21:58:03.947Z,0.19
2019-03-25T22:00:34.181Z,0.13
2019-03-25T22:03:11.461Z,0.10
2019-03-25T22:05:36.359Z,0.01
2019-03-25T22:08:06.592Z,0.04
2019-03-25T22:10:36.816Z,-0.02
2019-03-25T22:13:07.081Z,-0.04
2019-03-25T22:15:37.274Z,-0.05
2019-03-25T22:18:07.561Z,-0.05
2019-03-25T22:20:39.217Z,0.01
2019-03-25T22:23:09.629Z,0.20
2019-03-25T22:25:40.823Z,0.31
2019-03-25T22:28:12.669Z,0.44
2019-03-25T22:30:43.035Z,0.59
2019-03-25T22:33:25.222Z,0.67
2019-03-25T22:35:50.243Z,0.78
2019-03-25T22:38:20.871Z,0.82
2019-03-25T22:40:51.318Z,0.83
2019-03-25T22:43:23.177Z,0.83
2019-03-25T22:45:53.760Z,0.83
2019-03-25T22:48:24.052Z,0.78
2019-03-25T22:50:54.288Z,0.73
2019-03-25T22:53:24.573Z,0.65
2019-03-25T22:55:54.860Z,0.57
2019-03-25T22:58:25.080Z,0.45
2019-03-25T23:00:55.738Z,0.38
2019-03-25T23:03:38.217Z,0.29
2019-03-25T23:05:58.334Z,0.19
2019-03-25T23:08:28.638Z,0.08
2019-03-25T23:10:59.233Z,0.09
2019-03-25T23:13:29.559Z,0.04
2019-03-25T23:15:59.822Z,0.02
2019-03-25T23:18:30.484Z,0.00
2019-03-25T23:21:00.764Z,0.02
2019-03-25T23:23:31.423Z,-0.01
2019-03-25T23:26:01.727Z,-0.06
2019-03-25T23:28:32.344Z,-0.03
2019-03-25T23:31:02.740Z,-0.03
2019-03-25T23:33:33.078Z,-0.07
2019-03-25T23:36:03.285Z,-0.07
2019-03-25T23:38:34.789Z,-0.04
2019-03-25T23:41:05.058Z,-0.06
2019-03-25T23:43:35.291Z,-0.05
2019-03-25T23:46:05.534Z,-0.08
2019-03-25T23:48:35.789Z,-0.11
2019-03-25T23:51:06.469Z,-0.09
2019-03-25T23:53:36.728Z,-0.12
2019-03-25T23:56:06.957Z,-0.13
2019-03-25T23:58:37.203Z,-0.09
